sensor_id;sensor_type;location;lat;lon;timestamp;temperature;humidity
802;DHT22;383;48.766;9.270;2022-08-01T00:01:23;21.70;68.70
802;DHT22;383;48.766;9.270;2022-08-01T00:03:51;21.70;68.90
802;DHT22;383;48.766;9.270;2022-08-01T00:06:18;21.60;69.60
802;DHT22;383;48.766;9.270;2022-08-01T00:08:45;21.50;69.70
802;DHT22;383;48.766;9.270;2022-08-01T00:11:11;21.40;70.00
802;DHT22;383;48.766;9.270;2022-08-01T00:13:39;21.40;70.40
802;DHT22;383;48.766;9.270;2022-08-01T00:16:06;21.20;71.10
802;DHT22;383;48.766;9.270;2022-08-01T00:18:32;21.20;70.90
802;DHT22;383;48.766;9.270;2022-08-01T00:21:01;21.20;71.10
802;DHT22;383;48.766;9.270;2022-08-01T00:23:27;21.20;71.30
802;DHT22;383;48.766;9.270;2022-08-01T00:25:54;21.20;71.60
802;DHT22;383;48.766;9.270;2022-08-01T00:28:21;21.10;71.90
802;DHT22;383;48.766;9.270;2022-08-01T00:30:47;21.00;71.90
802;DHT22;383;48.766;9.270;2022-08-01T00:33:14;21.00;72.30
802;DHT22;383;48.766;9.270;2022-08-01T00:35:41;20.90;72.30
802;DHT22;383;48.766;9.270;2022-08-01T00:38:10;20.90;72.50
802;DHT22;383;48.766;9.270;2022-08-01T00:40:49;20.90;72.80
802;DHT22;383;48.766;9.270;2022-08-01T00:43:16;20.80;72.90
802;DHT22;383;48.766;9.270;2022-08-01T00:45:42;20.80;73.00
802;DHT22;383;48.766;9.270;2022-08-01T00:48:09;20.70;73.30
802;DHT22;383;48.766;9.270;2022-08-01T00:50:36;20.70;73.40
802;DHT22;383;48.766;9.270;2022-08-01T00:53:02;20.60;73.60
802;DHT22;383;48.766;9.270;2022-08-01T00:55:31;20.60;74.00
802;DHT22;383;48.766;9.270;2022-08-01T00:57:59;20.60;73.70
802;DHT22;383;48.766;9.270;2022-08-01T01:00:26;20.70;73.70
802;DHT22;383;48.766;9.270;2022-08-01T01:02:53;20.60;73.80
802;DHT22;383;48.766;9.270;2022-08-01T01:05:19;20.60;74.10
802;DHT22;383;48.766;9.270;2022-08-01T01:07:50;20.60;74.10
802;DHT22;383;48.766;9.270;2022-08-01T01:10:22;20.50;74.50
802;DHT22;383;48.766;9.270;2022-08-01T01:12:54;20.60;74.00
802;DHT22;383;48.766;9.270;2022-08-01T01:15:26;20.60;74.10
802;DHT22;383;48.766;9.270;2022-08-01T01:17:57;20.60;74.10
802;DHT22;383;48.766;9.270;2022-08-01T01:20:28;20.50;74.20
802;DHT22;383;48.766;9.270;2022-08-01T01:23:10;20.50;74.20
802;DHT22;383;48.766;9.270;2022-08-01T01:28:50;20.50;74.50
802;DHT22;383;48.766;9.270;2022-08-01T01:31:21;20.40;75.00
802;DHT22;383;48.766;9.270;2022-08-01T01:33:49;20.50;75.00
802;DHT22;383;48.766;9.270;2022-08-01T01:36:19;20.50;74.80
802;DHT22;383;48.766;9.270;2022-08-01T01:38:48;20.40;75.20
802;DHT22;383;48.766;9.270;2022-08-01T01:41:17;20.40;75.30
802;DHT22;383;48.766;9.270;2022-08-01T01:43:45;20.40;75.30
802;DHT22;383;48.766;9.270;2022-08-01T01:46:16;20.40;75.60
802;DHT22;383;48.766;9.270;2022-08-01T01:48:45;20.30;75.80
802;DHT22;383;48.766;9.270;2022-08-01T01:51:14;20.30;76.00
802;DHT22;383;48.766;9.270;2022-08-01T01:53:41;20.30;76.20
802;DHT22;383;48.766;9.270;2022-08-01T01:56:10;20.20;76.30
802;DHT22;383;48.766;9.270;2022-08-01T01:58:38;20.20;77.00
802;DHT22;383;48.766;9.270;2022-08-01T02:01:06;20.30;76.50
802;DHT22;383;48.766;9.270;2022-08-01T02:03:35;20.30;76.70
802;DHT22;383;48.766;9.270;2022-08-01T02:06:03;20.30;76.60
802;DHT22;383;48.766;9.270;2022-08-01T02:08:31;20.30;77.00
802;DHT22;383;48.766;9.270;2022-08-01T02:10:59;20.30;77.30
802;DHT22;383;48.766;9.270;2022-08-01T02:13:47;20.20;77.40
802;DHT22;383;48.766;9.270;2022-08-01T02:16:16;20.20;77.50
802;DHT22;383;48.766;9.270;2022-08-01T02:18:45;20.10;78.10
802;DHT22;383;48.766;9.270;2022-08-01T02:21:16;20.20;77.90
802;DHT22;383;48.766;9.270;2022-08-01T02:23:45;20.20;77.80
802;DHT22;383;48.766;9.270;2022-08-01T02:26:14;20.10;78.30
802;DHT22;383;48.766;9.270;2022-08-01T02:28:47;20.10;78.60
802;DHT22;383;48.766;9.270;2022-08-01T02:31:17;20.10;78.60
802;DHT22;383;48.766;9.270;2022-08-01T02:33:54;20.00;79.00
802;DHT22;383;48.766;9.270;2022-08-01T02:36:25;20.00;79.10
802;DHT22;383;48.766;9.270;2022-08-01T02:38:54;20.00;79.10
802;DHT22;383;48.766;9.270;2022-08-01T02:41:24;20.00;79.40
802;DHT22;383;48.766;9.270;2022-08-01T02:43:53;20.00;79.70
802;DHT22;383;48.766;9.270;2022-08-01T02:46:31;19.90;80.00
802;DHT22;383;48.766;9.270;2022-08-01T02:49:03;19.90;80.30
802;DHT22;383;48.766;9.270;2022-08-01T02:51:31;19.90;80.30
802;DHT22;383;48.766;9.270;2022-08-01T02:54:00;19.90;80.40
802;DHT22;383;48.766;9.270;2022-08-01T02:56:29;19.90;80.60
802;DHT22;383;48.766;9.270;2022-08-01T02:59:02;19.90;80.70
802;DHT22;383;48.766;9.270;2022-08-01T03:01:31;19.90;80.70
802;DHT22;383;48.766;9.270;2022-08-01T03:03:58;19.90;80.60
802;DHT22;383;48.766;9.270;2022-08-01T03:06:27;19.90;81.00
802;DHT22;383;48.766;9.270;2022-08-01T03:08:55;19.80;81.00
802;DHT22;383;48.766;9.270;2022-08-01T03:11:23;19.80;81.40
802;DHT22;383;48.766;9.270;2022-08-01T03:13:52;19.80;81.60
802;DHT22;383;48.766;9.270;2022-08-01T03:16:20;19.80;81.60
802;DHT22;383;48.766;9.270;2022-08-01T03:18:49;19.70;81.90
802;DHT22;383;48.766;9.270;2022-08-01T03:21:19;19.70;82.00
802;DHT22;383;48.766;9.270;2022-08-01T03:23:50;19.60;82.40
802;DHT22;383;48.766;9.270;2022-08-01T03:26:23;19.60;82.40
802;DHT22;383;48.766;9.270;2022-08-01T03:28:52;19.60;82.80
802;DHT22;383;48.766;9.270;2022-08-01T03:31:22;19.60;82.70
802;DHT22;383;48.766;9.270;2022-08-01T03:33:50;19.60;82.80
802;DHT22;383;48.766;9.270;2022-08-01T03:36:20;19.50;83.10
802;DHT22;383;48.766;9.270;2022-08-01T03:38:50;19.50;83.50
802;DHT22;383;48.766;9.270;2022-08-01T03:41:20;19.40;83.70
802;DHT22;383;48.766;9.270;2022-08-01T03:43:51;19.40;83.70
802;DHT22;383;48.766;9.270;2022-08-01T03:46:20;19.40;84.10
802;DHT22;383;48.766;9.270;2022-08-01T03:48:49;19.40;84.10
802;DHT22;383;48.766;9.270;2022-08-01T03:51:18;19.30;84.40
802;DHT22;383;48.766;9.270;2022-08-01T03:53:45;19.30;84.30
802;DHT22;383;48.766;9.270;2022-08-01T03:56:18;19.30;84.70
802;DHT22;383;48.766;9.270;2022-08-01T03:58:46;19.30;84.80
802;DHT22;383;48.766;9.270;2022-08-01T04:01:13;19.30;84.70
802;DHT22;383;48.766;9.270;2022-08-01T04:03:41;19.30;84.90
802;DHT22;383;48.766;9.270;2022-08-01T04:06:08;19.40;84.70
802;DHT22;383;48.766;9.270;2022-08-01T04:08:36;19.40;84.70
802;DHT22;383;48.766;9.270;2022-08-01T04:11:03;19.40;84.90
802;DHT22;383;48.766;9.270;2022-08-01T04:13:31;19.40;84.70
802;DHT22;383;48.766;9.270;2022-08-01T04:15:59;19.40;84.40
802;DHT22;383;48.766;9.270;2022-08-01T04:18:25;19.40;84.90
802;DHT22;383;48.766;9.270;2022-08-01T04:20:52;19.40;84.90
802;DHT22;383;48.766;9.270;2022-08-01T04:23:22;19.50;84.90
802;DHT22;383;48.766;9.270;2022-08-01T04:25:51;19.60;84.70
802;DHT22;383;48.766;9.270;2022-08-01T04:28:19;19.70;84.40
802;DHT22;383;48.766;9.270;2022-08-01T04:30:50;19.60;84.70
802;DHT22;383;48.766;9.270;2022-08-01T04:33:19;19.70;84.70
802;DHT22;383;48.766;9.270;2022-08-01T04:35:47;19.80;84.30
802;DHT22;383;48.766;9.270;2022-08-01T04:38:19;19.80;84.10
802;DHT22;383;48.766;9.270;2022-08-01T04:40:48;19.90;84.50
802;DHT22;383;48.766;9.270;2022-08-01T04:43:15;19.90;84.70
802;DHT22;383;48.766;9.270;2022-08-01T04:45:43;20.00;84.50
802;DHT22;383;48.766;9.270;2022-08-01T04:48:13;20.00;84.10
802;DHT22;383;48.766;9.270;2022-08-01T04:50:41;20.00;84.10
802;DHT22;383;48.766;9.270;2022-08-01T04:53:12;20.10;84.30
802;DHT22;383;48.766;9.270;2022-08-01T04:55:39;20.10;83.90
802;DHT22;383;48.766;9.270;2022-08-01T04:58:06;20.10;84.10
802;DHT22;383;48.766;9.270;2022-08-01T05:00:35;20.20;84.30
802;DHT22;383;48.766;9.270;2022-08-01T05:03:02;20.20;84.00
802;DHT22;383;48.766;9.270;2022-08-01T05:05:30;20.20;84.50
802;DHT22;383;48.766;9.270;2022-08-01T05:07:57;20.20;84.70
802;DHT22;383;48.766;9.270;2022-08-01T05:10:24;20.30;84.70
802;DHT22;383;48.766;9.270;2022-08-01T05:12:51;20.30;84.80
802;DHT22;383;48.766;9.270;2022-08-01T05:15:18;20.30;84.90
802;DHT22;383;48.766;9.270;2022-08-01T05:17:45;20.30;85.10
802;DHT22;383;48.766;9.270;2022-08-01T05:20:12;20.30;85.30
802;DHT22;383;48.766;9.270;2022-08-01T05:22:40;20.30;85.60
802;DHT22;383;48.766;9.270;2022-08-01T05:25:08;20.40;85.60
802;DHT22;383;48.766;9.270;2022-08-01T05:27:35;20.40;85.60
802;DHT22;383;48.766;9.270;2022-08-01T05:30:05;20.50;85.60
802;DHT22;383;48.766;9.270;2022-08-01T05:32:32;20.60;85.50
802;DHT22;383;48.766;9.270;2022-08-01T05:34:59;20.60;85.30
802;DHT22;383;48.766;9.270;2022-08-01T05:37:26;20.70;85.60
802;DHT22;383;48.766;9.270;2022-08-01T05:39:54;20.80;85.10
802;DHT22;383;48.766;9.270;2022-08-01T05:42:20;20.80;85.10
802;DHT22;383;48.766;9.270;2022-08-01T05:44:47;20.90;85.30
802;DHT22;383;48.766;9.270;2022-08-01T05:47:15;20.90;84.70
802;DHT22;383;48.766;9.270;2022-08-01T05:49:42;21.00;84.30
802;DHT22;383;48.766;9.270;2022-08-01T05:52:09;21.10;83.70
802;DHT22;383;48.766;9.270;2022-08-01T05:54:36;21.10;84.30
802;DHT22;383;48.766;9.270;2022-08-01T05:57:04;21.20;83.90
802;DHT22;383;48.766;9.270;2022-08-01T05:59:31;21.30;84.40
802;DHT22;383;48.766;9.270;2022-08-01T06:01:58;21.30;84.50
802;DHT22;383;48.766;9.270;2022-08-01T06:04:24;21.40;84.80
802;DHT22;383;48.766;9.270;2022-08-01T06:06:51;21.50;84.40
802;DHT22;383;48.766;9.270;2022-08-01T06:09:18;21.60;83.60
802;DHT22;383;48.766;9.270;2022-08-01T06:11:45;21.70;83.10
802;DHT22;383;48.766;9.270;2022-08-01T06:14:13;21.80;83.00
802;DHT22;383;48.766;9.270;2022-08-01T06:16:39;21.90;82.60
802;DHT22;383;48.766;9.270;2022-08-01T06:19:06;22.00;82.30
802;DHT22;383;48.766;9.270;2022-08-01T06:21:33;22.10;82.00
802;DHT22;383;48.766;9.270;2022-08-01T06:23:59;22.20;81.50
802;DHT22;383;48.766;9.270;2022-08-01T06:26:26;22.20;81.50
802;DHT22;383;48.766;9.270;2022-08-01T06:28:52;22.40;81.00
802;DHT22;383;48.766;9.270;2022-08-01T06:31:20;22.50;80.20
802;DHT22;383;48.766;9.270;2022-08-01T06:33:47;22.50;80.00
802;DHT22;383;48.766;9.270;2022-08-01T06:36:14;22.60;79.10
802;DHT22;383;48.766;9.270;2022-08-01T06:38:40;22.70;79.00
802;DHT22;383;48.766;9.270;2022-08-01T06:41:07;22.90;78.10
802;DHT22;383;48.766;9.270;2022-08-01T06:43:34;23.00;78.10
802;DHT22;383;48.766;9.270;2022-08-01T06:46:00;23.10;77.80
802;DHT22;383;48.766;9.270;2022-08-01T06:48:29;23.20;76.70
802;DHT22;383;48.766;9.270;2022-08-01T06:50:55;23.20;76.50
802;DHT22;383;48.766;9.270;2022-08-01T06:53:34;23.30;76.30
802;DHT22;383;48.766;9.270;2022-08-01T06:56:01;23.40;76.30
802;DHT22;383;48.766;9.270;2022-08-01T06:58:27;23.60;75.30
802;DHT22;383;48.766;9.270;2022-08-01T07:00:54;23.80;73.80
802;DHT22;383;48.766;9.270;2022-08-01T07:03:21;23.80;73.40
802;DHT22;383;48.766;9.270;2022-08-01T07:05:49;23.90;72.90
802;DHT22;383;48.766;9.270;2022-08-01T07:08:15;24.00;73.00
802;DHT22;383;48.766;9.270;2022-08-01T07:10:42;24.10;71.90
802;DHT22;383;48.766;9.270;2022-08-01T07:13:09;24.30;71.50
802;DHT22;383;48.766;9.270;2022-08-01T07:15:37;24.50;71.30
802;DHT22;383;48.766;9.270;2022-08-01T07:18:04;24.60;71.90
802;DHT22;383;48.766;9.270;2022-08-01T07:20:31;24.70;71.60
802;DHT22;383;48.766;9.270;2022-08-01T07:22:58;24.90;70.40
802;DHT22;383;48.766;9.270;2022-08-01T07:25:25;25.10;68.20
802;DHT22;383;48.766;9.270;2022-08-01T07:27:52;25.20;67.50
802;DHT22;383;48.766;9.270;2022-08-01T07:30:19;25.40;67.50
802;DHT22;383;48.766;9.270;2022-08-01T07:32:45;25.60;66.60
802;DHT22;383;48.766;9.270;2022-08-01T07:35:12;25.70;66.80
802;DHT22;383;48.766;9.270;2022-08-01T07:37:39;25.80;66.70
802;DHT22;383;48.766;9.270;2022-08-01T07:40:08;25.80;66.20
802;DHT22;383;48.766;9.270;2022-08-01T07:42:35;25.90;65.90
802;DHT22;383;48.766;9.270;2022-08-01T07:45:01;26.00;65.40
802;DHT22;383;48.766;9.270;2022-08-01T07:47:28;26.00;66.30
802;DHT22;383;48.766;9.270;2022-08-01T07:49:59;26.00;65.10
802;DHT22;383;48.766;9.270;2022-08-01T07:52:26;26.10;64.90
802;DHT22;383;48.766;9.270;2022-08-01T07:54:53;26.30;63.90
802;DHT22;383;48.766;9.270;2022-08-01T07:57:21;26.50;63.50
802;DHT22;383;48.766;9.270;2022-08-01T07:59:48;26.50;63.10
802;DHT22;383;48.766;9.270;2022-08-01T08:02:15;26.60;63.30
802;DHT22;383;48.766;9.270;2022-08-01T08:04:41;26.70;62.70
802;DHT22;383;48.766;9.270;2022-08-01T08:07:08;26.60;62.60
802;DHT22;383;48.766;9.270;2022-08-01T08:09:35;26.70;62.90
802;DHT22;383;48.766;9.270;2022-08-01T08:12:01;26.90;61.80
802;DHT22;383;48.766;9.270;2022-08-01T08:14:29;26.90;62.30
802;DHT22;383;48.766;9.270;2022-08-01T08:16:56;26.90;63.10
802;DHT22;383;48.766;9.270;2022-08-01T08:19:23;26.80;62.30
802;DHT22;383;48.766;9.270;2022-08-01T08:21:49;27.00;62.50
802;DHT22;383;48.766;9.270;2022-08-01T08:24:16;27.20;62.30
802;DHT22;383;48.766;9.270;2022-08-01T08:26:46;27.40;62.60
802;DHT22;383;48.766;9.270;2022-08-01T08:29:13;27.40;59.80
802;DHT22;383;48.766;9.270;2022-08-01T08:31:41;27.30;59.80
802;DHT22;383;48.766;9.270;2022-08-01T08:34:07;27.20;60.60
802;DHT22;383;48.766;9.270;2022-08-01T08:36:34;27.20;61.70
802;DHT22;383;48.766;9.270;2022-08-01T08:39:01;27.40;60.90
802;DHT22;383;48.766;9.270;2022-08-01T08:41:29;27.40;60.20
802;DHT22;383;48.766;9.270;2022-08-01T08:43:56;27.50;59.70
802;DHT22;383;48.766;9.270;2022-08-01T08:46:25;27.40;61.00
802;DHT22;383;48.766;9.270;2022-08-01T08:48:53;27.60;59.80
802;DHT22;383;48.766;9.270;2022-08-01T08:51:21;27.90;59.60
802;DHT22;383;48.766;9.270;2022-08-01T08:53:51;28.20;59.10
802;DHT22;383;48.766;9.270;2022-08-01T08:56:21;28.50;57.80
802;DHT22;383;48.766;9.270;2022-08-01T08:58:50;28.70;56.60
802;DHT22;383;48.766;9.270;2022-08-01T09:01:17;28.60;57.20
802;DHT22;383;48.766;9.270;2022-08-01T09:03:44;28.40;57.80
802;DHT22;383;48.766;9.270;2022-08-01T09:06:12;28.30;57.80
802;DHT22;383;48.766;9.270;2022-08-01T09:08:39;28.40;58.20
802;DHT22;383;48.766;9.270;2022-08-01T09:11:06;28.60;57.00
802;DHT22;383;48.766;9.270;2022-08-01T09:13:33;28.80;57.60
802;DHT22;383;48.766;9.270;2022-08-01T09:15:59;29.00;57.10
802;DHT22;383;48.766;9.270;2022-08-01T09:18:29;28.80;56.90
802;DHT22;383;48.766;9.270;2022-08-01T09:21:12;28.90;57.00
802;DHT22;383;48.766;9.270;2022-08-01T09:23:42;29.00;56.60
802;DHT22;383;48.766;9.270;2022-08-01T09:26:10;28.90;56.90
802;DHT22;383;48.766;9.270;2022-08-01T09:28:37;28.90;55.90
802;DHT22;383;48.766;9.270;2022-08-01T09:31:07;29.00;55.70
802;DHT22;383;48.766;9.270;2022-08-01T09:33:51;29.00;55.90
802;DHT22;383;48.766;9.270;2022-08-01T09:36:20;29.10;56.10
802;DHT22;383;48.766;9.270;2022-08-01T09:38:47;29.30;55.10
802;DHT22;383;48.766;9.270;2022-08-01T09:41:14;29.40;56.40
802;DHT22;383;48.766;9.270;2022-08-01T09:43:47;29.50;56.00
802;DHT22;383;48.766;9.270;2022-08-01T09:46:15;29.50;55.10
802;DHT22;383;48.766;9.270;2022-08-01T09:48:55;29.50;54.60
802;DHT22;383;48.766;9.270;2022-08-01T09:51:29;29.60;54.90
802;DHT22;383;48.766;9.270;2022-08-01T09:53:56;29.80;54.60
802;DHT22;383;48.766;9.270;2022-08-01T09:56:24;29.90;54.50
802;DHT22;383;48.766;9.270;2022-08-01T09:58:52;29.90;53.50
802;DHT22;383;48.766;9.270;2022-08-01T10:01:20;29.60;54.30
802;DHT22;383;48.766;9.270;2022-08-01T10:03:52;29.40;55.50
802;DHT22;383;48.766;9.270;2022-08-01T10:06:31;29.20;54.50
802;DHT22;383;48.766;9.270;2022-08-01T10:08:58;28.90;55.90
802;DHT22;383;48.766;9.270;2022-08-01T10:11:24;28.90;57.20
802;DHT22;383;48.766;9.270;2022-08-01T10:13:51;29.00;56.20
802;DHT22;383;48.766;9.270;2022-08-01T10:16:19;28.90;56.70
802;DHT22;383;48.766;9.270;2022-08-01T10:18:46;28.90;55.70
802;DHT22;383;48.766;9.270;2022-08-01T10:21:13;28.90;56.00
802;DHT22;383;48.766;9.270;2022-08-01T10:23:42;28.90;57.10
802;DHT22;383;48.766;9.270;2022-08-01T10:26:12;29.10;55.90
802;DHT22;383;48.766;9.270;2022-08-01T10:28:40;29.10;55.50
802;DHT22;383;48.766;9.270;2022-08-01T10:31:11;29.20;55.70
802;DHT22;383;48.766;9.270;2022-08-01T10:33:38;29.40;55.50
802;DHT22;383;48.766;9.270;2022-08-01T10:36:07;29.50;54.70
802;DHT22;383;48.766;9.270;2022-08-01T10:38:34;29.50;54.30
802;DHT22;383;48.766;9.270;2022-08-01T10:41:03;29.50;54.30
802;DHT22;383;48.766;9.270;2022-08-01T10:43:30;29.30;54.10
802;DHT22;383;48.766;9.270;2022-08-01T10:45:57;29.40;53.90
802;DHT22;383;48.766;9.270;2022-08-01T10:48:29;29.50;55.00
802;DHT22;383;48.766;9.270;2022-08-01T10:51:00;29.70;54.50
802;DHT22;383;48.766;9.270;2022-08-01T10:53:28;29.90;54.30
802;DHT22;383;48.766;9.270;2022-08-01T10:55:58;29.90;54.70
802;DHT22;383;48.766;9.270;2022-08-01T10:58:29;29.90;54.30
802;DHT22;383;48.766;9.270;2022-08-01T11:01:17;29.80;53.60
802;DHT22;383;48.766;9.270;2022-08-01T11:04:01;29.80;52.80
802;DHT22;383;48.766;9.270;2022-08-01T11:06:39;29.60;53.80
802;DHT22;383;48.766;9.270;2022-08-01T11:09:22;29.40;53.50
802;DHT22;383;48.766;9.270;2022-08-01T11:12:06;29.30;55.50
802;DHT22;383;48.766;9.270;2022-08-01T11:17:41;28.80;55.70
802;DHT22;383;48.766;9.270;2022-08-01T11:20:14;28.80;55.40
802;DHT22;383;48.766;9.270;2022-08-01T11:26:09;28.90;55.90
802;DHT22;383;48.766;9.270;2022-08-01T11:28:36;29.00;54.30
802;DHT22;383;48.766;9.270;2022-08-01T11:31:25;29.20;54.00
802;DHT22;383;48.766;9.270;2022-08-01T11:33:55;29.50;53.00
802;DHT22;383;48.766;9.270;2022-08-01T11:36:22;29.70;52.60
802;DHT22;383;48.766;9.270;2022-08-01T11:39:10;29.60;52.00
802;DHT22;383;48.766;9.270;2022-08-01T11:41:37;29.40;52.60
802;DHT22;383;48.766;9.270;2022-08-01T11:44:05;29.20;52.80
802;DHT22;383;48.766;9.270;2022-08-01T11:46:51;29.20;53.30
802;DHT22;383;48.766;9.270;2022-08-01T11:49:28;29.50;53.00
802;DHT22;383;48.766;9.270;2022-08-01T11:51:59;29.60;52.50
802;DHT22;383;48.766;9.270;2022-08-01T11:54:28;29.70;53.00
802;DHT22;383;48.766;9.270;2022-08-01T11:56:59;29.80;52.30
802;DHT22;383;48.766;9.270;2022-08-01T11:59:26;29.80;52.40
802;DHT22;383;48.766;9.270;2022-08-01T12:01:53;30.00;52.50
802;DHT22;383;48.766;9.270;2022-08-01T12:04:20;30.20;51.20
802;DHT22;383;48.766;9.270;2022-08-01T12:06:48;30.30;51.30
802;DHT22;383;48.766;9.270;2022-08-01T12:09:15;30.30;51.50
802;DHT22;383;48.766;9.270;2022-08-01T12:11:42;30.40;50.20
802;DHT22;383;48.766;9.270;2022-08-01T12:14:09;30.30;49.80
802;DHT22;383;48.766;9.270;2022-08-01T12:16:36;30.00;51.20
802;DHT22;383;48.766;9.270;2022-08-01T12:19:03;29.90;50.80
802;DHT22;383;48.766;9.270;2022-08-01T12:21:30;29.70;51.20
802;DHT22;383;48.766;9.270;2022-08-01T12:24:02;29.50;51.50
802;DHT22;383;48.766;9.270;2022-08-01T12:26:39;29.50;51.40
802;DHT22;383;48.766;9.270;2022-08-01T12:29:06;29.50;51.40
802;DHT22;383;48.766;9.270;2022-08-01T12:31:33;29.60;51.50
802;DHT22;383;48.766;9.270;2022-08-01T12:34:26;30.00;52.30
802;DHT22;383;48.766;9.270;2022-08-01T12:36:55;30.20;50.40
802;DHT22;383;48.766;9.270;2022-08-01T12:39:31;30.40;51.20
802;DHT22;383;48.766;9.270;2022-08-01T12:41:58;30.50;49.40
802;DHT22;383;48.766;9.270;2022-08-01T12:44:25;30.60;49.00
802;DHT22;383;48.766;9.270;2022-08-01T12:46:53;30.50;49.50
802;DHT22;383;48.766;9.270;2022-08-01T12:49:20;30.50;50.30
802;DHT22;383;48.766;9.270;2022-08-01T12:51:47;30.40;50.40
802;DHT22;383;48.766;9.270;2022-08-01T12:54:14;30.30;50.50
802;DHT22;383;48.766;9.270;2022-08-01T12:56:43;30.10;50.70
802;DHT22;383;48.766;9.270;2022-08-01T12:59:19;30.20;51.30
802;DHT22;383;48.766;9.270;2022-08-01T13:01:46;30.50;50.70
802;DHT22;383;48.766;9.270;2022-08-01T13:04:13;30.60;51.00
802;DHT22;383;48.766;9.270;2022-08-01T13:06:40;30.90;50.20
802;DHT22;383;48.766;9.270;2022-08-01T13:09:07;30.70;49.70
802;DHT22;383;48.766;9.270;2022-08-01T13:11:34;30.60;49.80
802;DHT22;383;48.766;9.270;2022-08-01T13:14:02;30.70;49.00
802;DHT22;383;48.766;9.270;2022-08-01T13:16:29;30.90;49.90
802;DHT22;383;48.766;9.270;2022-08-01T13:18:57;31.10;49.90
802;DHT22;383;48.766;9.270;2022-08-01T13:21:24;31.40;49.00
802;DHT22;383;48.766;9.270;2022-08-01T13:24:03;31.70;48.20
802;DHT22;383;48.766;9.270;2022-08-01T13:26:40;31.80;47.40
802;DHT22;383;48.766;9.270;2022-08-01T13:29:10;31.70;47.70
802;DHT22;383;48.766;9.270;2022-08-01T13:31:38;31.60;48.60
802;DHT22;383;48.766;9.270;2022-08-01T13:34:05;31.60;48.30
802;DHT22;383;48.766;9.270;2022-08-01T13:36:32;31.60;47.70
802;DHT22;383;48.766;9.270;2022-08-01T13:38:59;31.50;47.70
802;DHT22;383;48.766;9.270;2022-08-01T13:41:44;31.30;48.30
802;DHT22;383;48.766;9.270;2022-08-01T13:44:12;31.20;49.20
802;DHT22;383;48.766;9.270;2022-08-01T13:46:40;31.20;48.60
802;DHT22;383;48.766;9.270;2022-08-01T13:49:07;31.10;48.90
802;DHT22;383;48.766;9.270;2022-08-01T13:51:35;31.10;49.90
802;DHT22;383;48.766;9.270;2022-08-01T13:54:03;31.20;48.60
802;DHT22;383;48.766;9.270;2022-08-01T13:56:31;31.00;49.30
802;DHT22;383;48.766;9.270;2022-08-01T13:58:57;31.20;49.90
802;DHT22;383;48.766;9.270;2022-08-01T14:01:26;31.70;49.00
802;DHT22;383;48.766;9.270;2022-08-01T14:03:52;32.20;47.60
802;DHT22;383;48.766;9.270;2022-08-01T14:06:19;32.50;46.60
802;DHT22;383;48.766;9.270;2022-08-01T14:08:48;32.90;46.30
802;DHT22;383;48.766;9.270;2022-08-01T14:11:15;33.20;45.20
802;DHT22;383;48.766;9.270;2022-08-01T14:13:43;33.60;44.30
802;DHT22;383;48.766;9.270;2022-08-01T14:16:09;33.70;44.30
802;DHT22;383;48.766;9.270;2022-08-01T14:18:37;33.40;44.20
802;DHT22;383;48.766;9.270;2022-08-01T14:21:04;33.20;44.70
802;DHT22;383;48.766;9.270;2022-08-01T14:23:31;33.10;44.60
802;DHT22;383;48.766;9.270;2022-08-01T14:25:57;33.10;44.30
802;DHT22;383;48.766;9.270;2022-08-01T14:28:24;33.10;45.10
802;DHT22;383;48.766;9.270;2022-08-01T14:30:53;33.10;44.70
802;DHT22;383;48.766;9.270;2022-08-01T14:33:21;32.80;44.80
802;DHT22;383;48.766;9.270;2022-08-01T14:35:49;32.70;45.20
802;DHT22;383;48.766;9.270;2022-08-01T14:38:16;32.60;46.10
802;DHT22;383;48.766;9.270;2022-08-01T14:40:42;32.50;45.70
802;DHT22;383;48.766;9.270;2022-08-01T14:43:12;32.50;46.10
802;DHT22;383;48.766;9.270;2022-08-01T14:45:38;32.40;45.90
802;DHT22;383;48.766;9.270;2022-08-01T14:48:05;32.30;46.60
802;DHT22;383;48.766;9.270;2022-08-01T14:50:32;32.30;46.90
802;DHT22;383;48.766;9.270;2022-08-01T14:53:00;32.30;45.60
802;DHT22;383;48.766;9.270;2022-08-01T14:55:26;32.30;45.80
802;DHT22;383;48.766;9.270;2022-08-01T14:57:53;32.30;47.40
802;DHT22;383;48.766;9.270;2022-08-01T15:00:20;32.20;46.20
802;DHT22;383;48.766;9.270;2022-08-01T15:02:47;32.20;47.20
802;DHT22;383;48.766;9.270;2022-08-01T15:05:14;32.10;46.40
802;DHT22;383;48.766;9.270;2022-08-01T15:07:40;32.20;47.30
802;DHT22;383;48.766;9.270;2022-08-01T15:10:09;32.40;45.70
802;DHT22;383;48.766;9.270;2022-08-01T15:12:36;32.40;45.80
802;DHT22;383;48.766;9.270;2022-08-01T15:15:03;32.60;45.70
802;DHT22;383;48.766;9.270;2022-08-01T15:17:31;32.80;45.70
802;DHT22;383;48.766;9.270;2022-08-01T15:20:00;33.10;45.10
802;DHT22;383;48.766;9.270;2022-08-01T15:22:28;33.20;44.80
802;DHT22;383;48.766;9.270;2022-08-01T15:24:56;33.20;45.10
802;DHT22;383;48.766;9.270;2022-08-01T15:27:25;33.00;44.10
802;DHT22;383;48.766;9.270;2022-08-01T15:29:52;32.80;44.80
802;DHT22;383;48.766;9.270;2022-08-01T15:32:19;32.70;45.00
802;DHT22;383;48.766;9.270;2022-08-01T15:34:46;32.50;45.50
802;DHT22;383;48.766;9.270;2022-08-01T15:37:13;32.30;45.60
802;DHT22;383;48.766;9.270;2022-08-01T15:39:40;32.00;46.30
802;DHT22;383;48.766;9.270;2022-08-01T15:42:09;31.90;46.40
802;DHT22;383;48.766;9.270;2022-08-01T15:44:38;31.70;46.70
802;DHT22;383;48.766;9.270;2022-08-01T15:47:05;31.50;47.40
802;DHT22;383;48.766;9.270;2022-08-01T15:49:32;31.40;47.30
802;DHT22;383;48.766;9.270;2022-08-01T15:52:01;31.40;47.10
802;DHT22;383;48.766;9.270;2022-08-01T15:54:28;31.40;47.30
802;DHT22;383;48.766;9.270;2022-08-01T15:56:54;31.40;46.90
802;DHT22;383;48.766;9.270;2022-08-01T15:59:21;31.40;47.30
802;DHT22;383;48.766;9.270;2022-08-01T16:01:49;31.20;47.30
802;DHT22;383;48.766;9.270;2022-08-01T16:04:17;31.10;47.90
802;DHT22;383;48.766;9.270;2022-08-01T16:06:45;31.00;47.70
802;DHT22;383;48.766;9.270;2022-08-01T16:09:12;30.90;48.20
802;DHT22;383;48.766;9.270;2022-08-01T16:11:39;30.90;47.80
802;DHT22;383;48.766;9.270;2022-08-01T16:14:06;30.80;48.10
802;DHT22;383;48.766;9.270;2022-08-01T16:16:33;30.80;48.20
802;DHT22;383;48.766;9.270;2022-08-01T16:19:01;30.80;48.20
802;DHT22;383;48.766;9.270;2022-08-01T16:21:29;30.70;48.20
802;DHT22;383;48.766;9.270;2022-08-01T16:23:56;30.70;47.90
802;DHT22;383;48.766;9.270;2022-08-01T16:26:22;30.70;48.20
802;DHT22;383;48.766;9.270;2022-08-01T16:28:49;30.70;48.40
802;DHT22;383;48.766;9.270;2022-08-01T16:31:17;30.70;48.20
802;DHT22;383;48.766;9.270;2022-08-01T16:33:44;30.70;48.10
802;DHT22;383;48.766;9.270;2022-08-01T16:36:13;30.70;48.30
802;DHT22;383;48.766;9.270;2022-08-01T16:38:39;30.70;47.90
802;DHT22;383;48.766;9.270;2022-08-01T16:41:06;30.60;48.30
802;DHT22;383;48.766;9.270;2022-08-01T16:43:33;30.50;48.60
802;DHT22;383;48.766;9.270;2022-08-01T16:45:59;30.40;48.20
802;DHT22;383;48.766;9.270;2022-08-01T16:48:26;30.30;48.90
802;DHT22;383;48.766;9.270;2022-08-01T16:50:53;30.20;48.90
802;DHT22;383;48.766;9.270;2022-08-01T16:53:22;30.10;48.90